Flight Track Log - Related Links

Times and Time Zones

All times are in EDT time to prevent confusion due to time zone crossing. See the GJS3697 flight status page for this flight to view local times or setup timezone preferences in your user account.

Time Position Orientation Groundspeed Altitude Reporting Facility
EDT Latitude Longitude Course Direction KTS MPH feet Rate Location/Type
Wed 11:54:35 AM 35.3669 -97.6053 149° Southeast 172 198 2,200  Level Kansas City Center
Wed 11:55:37 AM 35.3225 -97.5725 149° Southeast 241 277 3,800 1,694 Climbing Kansas City Center
Wed 11:56:39 AM 35.3492 -97.4942 67° East 254 292 5,700 1,887 Climbing Kansas City Center
Wed 11:57:41 AM 35.3903 -97.4158 57° Northeast 264 304 7,700 2,177 Climbing Kansas City Center
Wed 11:58:43 AM 35.4411 -97.3269 55° Northeast 280 322 10,200 1,887 Climbing Kansas City Center
Wed 11:59:45 AM 35.4928 -97.2403 54° Northeast 304 350 11,600 1,355 Climbing Kansas City Center
Wed 12:00:47 PM 35.5500 -97.1428 54° Northeast 338 389 13,000 1,790 Climbing Kansas City Center
Wed 12:01:49 PM 35.6161 -97.0150 57° Northeast 363 418 15,300 1,887 Climbing Kansas City Center
Wed 12:02:51 PM 35.6767 -96.9144 53° Northeast 367 422 16,900 1,306 Climbing Kansas City Center
Wed 12:03:53 PM 35.7358 -96.8025 57° Northeast 384 442 18,000 1,152 Climbing Kansas City Center
Wed 12:04:56 PM 35.7908 -96.6806 61° Northeast 402 463 19,300 1,200 Climbing Kansas City Center
Wed 12:05:58 PM 35.8472 -96.5569 61° Northeast 412 474 20,500 1,306 Climbing Kansas City Center
Wed 12:07:00 PM 35.9053 -96.4311 60° Northeast 420 483 22,000 1,500 Climbing Kansas City Center
Wed 12:08:02 PM 35.9636 -96.3042 60° Northeast 415 478 23,600 1,355 Climbing Kansas City Center
Wed 12:09:04 PM 36.0314 -96.1544 61° Northeast 417 480 24,800 1,065 Climbing Kansas City Center
Wed 12:10:06 PM 36.0897 -96.0264 61° Northeast 425 489 25,800 968 Climbing Kansas City Center
Wed 12:11:08 PM 36.1475 -95.8969 61° Northeast 429 494 26,800 968 Climbing Kansas City Center
Wed 12:12:10 PM 36.2083 -95.7697 59° Northeast 431 496 27,800 968 Climbing Kansas City Center
Wed 12:13:12 PM 36.2842 -95.6672 47° Northeast 426 490 28,800 968 Climbing Kansas City Center
Wed 12:14:14 PM 36.3783 -95.5336 49° Northeast 429 494 29,800 774 Climbing Kansas City Center
Wed 12:15:16 PM 36.4553 -95.4192 50° Northeast 431 496 30,400 581 Climbing Kansas City Center
Wed 12:16:18 PM 36.5361 -95.3033 49° Northeast 440 506 31,000 581 Climbing Kansas City Center
Wed 12:17:20 PM 36.6125 -95.1897 50° Northeast 444 511 31,600 677 Climbing Kansas City Center
Wed 12:18:22 PM 36.6958 -95.0719 49° Northeast 450 518 32,400 871 Climbing Kansas City Center
Wed 12:19:24 PM 36.7956 -94.9319 48° Northeast 449 517 33,400 871 Climbing Kansas City Center
Wed 12:20:26 PM 36.8369 -94.7794 71° East 465 535 34,200 581 Climbing Kansas City Center
Wed 12:21:28 PM 36.8681 -94.6239 76° East 461 531 34,600 484 Climbing Kansas City Center
Wed 12:22:30 PM 36.9022 -94.4653 75° East 468 539 35,200 629 Climbing Kansas City Center
Wed 12:23:32 PM 36.9336 -94.3064 76° East 470 541 35,900 677 Climbing Kansas City Center
Wed 12:24:34 PM 36.9647 -94.1469 76° East 472 543 36,600 823 Climbing Kansas City Center
Wed 12:25:36 PM 37.0022 -93.9569 76° East 470 541 37,600 823 Climbing Kansas City Center
Wed 12:26:38 PM 37.0306 -93.8033 77° East 460 529 38,300 624 Climbing Kansas City Center
Wed 12:27:41 PM 37.0628 -93.6422 76° East 454 522 38,900 336 Climbing Kansas City Center
Wed 12:28:43 PM 37.0922 -93.4908 76° East 450 518 39,000 48 Climbing Kansas City Center
Wed 12:29:45 PM 37.1225 -93.3389 76° East 451 519 39,000  Level Kansas City Center
Wed 12:30:47 PM 37.1525 -93.1853 76° East 453 521 39,000  Level Kansas City Center
Wed 12:31:49 PM 37.1817 -93.0328 76° East 452 520 39,000  Level Kansas City Center
Wed 12:32:51 PM 37.2097 -92.8839 77° East 445 512 39,000  Level Kansas City Center
Wed 12:33:53 PM 37.2428 -92.7031 77° East 445 512 39,000  Level Kansas City Center
Wed 12:34:55 PM 37.2711 -92.5483 77° East 450 518 39,000  Level Kansas City Center
Wed 12:35:57 PM 37.2994 -92.3933 77° East 456 525 39,000  Level Kansas City Center
Wed 12:36:59 PM 37.3272 -92.2369 77° East 459 528 39,000  Level Kansas City Center
Wed 12:38:01 PM 37.3558 -92.0836 77° East 457 526 39,000  Level Kansas City Center
Wed 12:39:03 PM 37.3828 -91.9286 78° East 454 522 39,000  Level Kansas City Center
Wed 12:40:05 PM 37.4164 -91.7439 77° East 453 521 39,000  Level Kansas City Center
Wed 12:41:07 PM 37.4436 -91.5914 77° East 451 519 39,000  Level Kansas City Center
Wed 12:42:09 PM 37.4700 -91.4364 78° East 452 520 39,000  Level Kansas City Center
Wed 12:43:11 PM 37.4972 -91.2853 77° East 447 514 39,000  Level Kansas City Center
Wed 12:44:13 PM 37.5233 -91.1308 78° East 448 516 39,000  Level Kansas City Center
Wed 12:45:15 PM 37.5483 -90.9767 78° East 449 517 39,000  Level Kansas City Center
Wed 12:46:17 PM 37.5789 -90.7922 78° East 449 517 39,000  Level Kansas City Center
Wed 12:47:19 PM 37.6064 -90.6375 77° East 451 519 39,000  Level Kansas City Center
Wed 12:48:21 PM 37.6311 -90.4814 79° East 453 521 39,000  Level Kansas City Center
Wed 12:49:24 PM 37.6578 -90.3278 78° East 454 522 39,000  Level Kansas City Center
Wed 12:50:26 PM 37.6811 -90.1697 79° East 459 528 39,000  Level Kansas City Center
Wed 12:51:28 PM 37.6983 -90.0089 82° East 464 534 39,000  Level Kansas City Center
Wed 12:52:30 PM 37.7194 -89.8158 82° East 464 534 39,000  Level Kansas City Center
Wed 12:53:32 PM 37.7372 -89.6542 82° East 466 536 39,000  Level Kansas City Center
Wed 12:54:34 PM 37.7544 -89.4939 82° East 465 535 39,000  Level Kansas City Center
Wed 12:55:36 PM 37.7711 -89.3358 82° East 462 532 39,000  Level Kansas City Center
Wed 12:56:38 PM 37.7875 -89.1783 82° East 458 527 39,000  Level Kansas City Center
Wed 12:57:40 PM 37.8081 -88.9861 82° East 457 526 39,000  Level Kansas City Center
Wed 12:58:42 PM 37.8217 -88.8256 84° East 460 529 39,000  Level Kansas City Center
Wed 12:59:44 PM 37.8322 -88.6669 85° East 457 526 39,000  Level Kansas City Center
Wed 01:01:40 PM 37.8036 -88.3464 96° East 458 527 39,000  Level Indianapolis Center
Wed 01:02:41 PM 37.7906 -88.1872 96° East 456 525 39,000  Level Indianapolis Center
Wed 01:03:43 PM 37.7761 -88.0261 96° East 461 531 39,000  Level Indianapolis Center
Wed 01:04:44 PM 37.7628 -87.8775 96° East 460 529 39,000  Level Indianapolis Center
Wed 01:05:46 PM 37.7453 -87.6878 97° East 461 531 39,000  Level Indianapolis Center
Wed 01:06:47 PM 37.7297 -87.5250 97° East 462 532 39,000  Level Indianapolis Center
Wed 01:07:49 PM 37.7139 -87.3606 97° East 466 536 39,000  Level Indianapolis Center
Wed 01:08:50 PM 37.6989 -87.1939 96° East 471 542 39,000  Level Indianapolis Center
Wed 01:09:52 PM 37.6842 -87.0206 96° East 473 544 39,000  Level Indianapolis Center
Wed 01:10:53 PM 37.6875 -86.8556 88° East 473 544 39,000  Level Indianapolis Center
Wed 01:11:55 PM 37.7128 -86.6969 79° East 467 537 39,000  Level Indianapolis Center
Wed 01:12:56 PM 37.7364 -86.5333 80° East 474 545 39,000  Level Indianapolis Center
Wed 01:13:58 PM 37.7617 -86.3689 79° East 472 543 39,000  Level Indianapolis Center
Wed 01:14:59 PM 37.7856 -86.2058 79° East 469 540 39,000  Level Indianapolis Center
Wed 01:16:01 PM 37.8069 -86.0486 80° East 468 539 39,000  Level Indianapolis Center
Wed 01:17:02 PM 37.8322 -85.8828 79° East 477 549 39,000  Level Indianapolis Center
Wed 01:18:03 PM 37.8603 -85.6892 80° East 467 537 39,000  Level Indianapolis Center
Wed 01:19:05 PM 37.8836 -85.5275 80° East 468 539 39,000  Level Indianapolis Center
Wed 01:20:06 PM 37.9058 -85.3678 80° East 463 533 39,000  Level Indianapolis Center
Wed 01:21:08 PM 37.9281 -85.2081 80° East 461 531 39,000  Level Indianapolis Center
Wed 01:22:09 PM 37.9486 -85.0483 81° East 458 527 39,000  Level Indianapolis Center
Wed 01:23:11 PM 37.9483 -84.8867 90° East 462 532 39,000  Level Indianapolis Center
Wed 01:24:12 PM 37.9497 -84.7247 89° East 457 526 39,000  Level Indianapolis Center
Wed 01:25:13 PM 37.9531 -84.5608 88° East 467 537 39,000  Level Indianapolis Center
Wed 01:26:15 PM 37.9556 -84.3728 89° East 457 526 39,000  Level Indianapolis Center
Wed 01:27:16 PM 37.9719 -84.2097 83° East 467 537 39,000  Level Indianapolis Center
Wed 01:28:18 PM 37.9986 -84.0483 78° East 465 535 39,000  Level Indianapolis Center
Wed 01:29:19 PM 38.0250 -83.8864 78° East 467 537 39,000  Level Indianapolis Center
Wed 01:30:21 PM 38.0522 -83.7219 78° East 473 544 39,000  Level Indianapolis Center
Wed 01:31:22 PM 38.0778 -83.5642 78° East 460 529 39,000  Level Indianapolis Center
Wed 01:32:24 PM 38.1011 -83.4108 79° East 447 514 39,000  Level Indianapolis Center
Wed 01:33:25 PM 38.1258 -83.2558 78° East 446 513 39,000  Level Indianapolis Center
Wed 01:34:26 PM 38.1506 -83.0994 79° East 448 516 39,000  Level Indianapolis Center
Wed 01:35:28 PM 38.1783 -82.9181 79° East 449 517 39,000  Level Indianapolis Center
Wed 01:36:29 PM 38.2022 -82.7619 79° East 448 516 39,000  Level Indianapolis Center
Wed 01:37:31 PM 38.2264 -82.6064 79° East 448 516 39,000  Level Indianapolis Center
Wed 01:38:32 PM 38.2489 -82.4528 79° East 448 516 39,000  Level Indianapolis Center
Wed 01:39:33 PM 38.2722 -82.2961 79° East 450 518 39,000  Level Indianapolis Center
Wed 01:40:35 PM 38.2961 -82.1408 79° East 449 517 39,000  Level Indianapolis Center
Wed 01:41:36 PM 38.3194 -81.9861 79° East 448 516 39,000  Level Indianapolis Center
Wed 01:42:38 PM 38.3411 -81.8278 80° East 454 522 39,000  Level Indianapolis Center
Wed 01:43:39 PM 38.3458 -81.6667 88° East 464 534 39,000  Level Indianapolis Center
Wed 01:44:40 PM 38.3386 -81.4725 93° East 464 534 39,000 -98 Level Indianapolis Center
Wed 01:45:42 PM 38.3336 -81.3081 92° East 471 542 38,800 -341 Descending Indianapolis Center
Wed 01:46:43 PM 38.3272 -81.1397 93° East 480 552 38,300 -488 Descending Indianapolis Center
Wed 01:47:45 PM 38.3219 -80.9672 92° East 490 564 37,800 -488 Descending Indianapolis Center
Wed 01:48:46 PM 38.3169 -80.8011 92° East 475 547 37,300 -390 Descending Indianapolis Center
Wed 01:49:48 PM 38.3114 -80.6378 92° East 463 533 37,000 -195 Descending Indianapolis Center
Wed 01:50:49 PM 38.3056 -80.4744 93° East 462 532 36,900 -734 Descending Indianapolis Center
Wed 01:52:07 PM 38.3500 -80.2436 76° East 467 537 35,300 -1,087 Descending Washington Center
Wed 01:53:07 PM 38.3856 -80.0789 75° East 472 543 34,400 -1,000 Descending Washington Center
Wed 01:54:07 PM 38.4189 -79.9114 76° East 472 543 33,300 -2,331 Descending Washington Center
Wed 01:55:08 PM 38.4517 -79.7436 76° East 477 549 29,700 -3,719 Descending Washington Center
Wed 01:56:08 PM 38.4867 -79.5783 75° East 483 556 25,800 -3,223 Descending Washington Center
Wed 01:57:09 PM 38.5164 -79.4339 75° East 483 556 23,200 -1,835 Descending Washington Center
Wed 01:58:09 PM 38.5461 -79.2842 76° East 460 529 22,100 -1,017 Descending Washington Center
Wed 01:59:07 PM 38.5669 -79.1444 79° East 423 487 21,200 -1,059 Descending Washington Center
Wed 02:00:08 PM 38.5961 -79.0025 75° East 412 474 20,000 -1,587 Descending Washington Center
Wed 02:01:08 PM 38.6186 -78.8628 78° East 407 468 18,000 -1,934 Descending Washington Center
Wed 02:02:09 PM 38.6472 -78.7336 74° East 394 453 16,100 -1,884 Descending Washington Center
Wed 02:03:09 PM 38.6756 -78.6072 74° East 380 437 14,200 -1,780 Descending Washington Center
Wed 02:04:07 PM 38.7033 -78.4939 73° East 350 403 12,600 -1,462 Descending Washington Center
Wed 02:05:08 PM 38.7286 -78.3886 73° East 323 372 11,300 -1,140 Descending Washington Center
Wed 02:06:08 PM 38.7828 -78.3053 50° Northeast 294 338 10,300 -992 Descending Washington Center
Wed 02:07:09 PM 38.8386 -78.2275 47° Northeast 294 338 9,300 -1,160 Descending Washington Center
Wed 02:08:07 PM 38.8742 -78.1300 65° Northeast 294 338 8,000 -1,322 Descending Washington Center
Wed 02:09:07 PM 38.8992 -78.0294 72° East 288 331 6,700 -942 Descending Washington Center
Wed 02:10:08 PM 38.9219 -77.9317 73° East 288 331 6,100 -295 Descending Washington Center
Wed 02:11:09 PM 38.9489 -77.8336 71° East 283 326 6,100  Level Washington Center
Wed 02:12:07 PM 38.9611 -77.7247 82° East 283 326 6,100  Level Washington Center
Wed 02:13:07 PM 38.9628 -77.6339 89° East 283 326 6,100 -65 Level Washington Center
Wed 02:13:39 PM 39.0000 -77.5833 47° Northeast 288 331 6,000 -326 Descending Potomac TRACON
Wed 02:14:39 PM 39.0667 -77.5667 11° North 229 264 5,600 -793 Descending Potomac TRACON
Wed 02:15:40 PM 39.1167 -77.5500 14° North 231 266 4,400 -1,388 Descending Potomac TRACON
Wed 02:16:40 PM 39.1000 -77.4667 104° East 235 270 2,800 -1,263 Descending Potomac TRACON
Wed 02:17:34 PM 39.0500 -77.4500 165° South 181 208 2,000 -887 Descending Potomac TRACON
Wed 02:18:35 PM 39.0167 -77.4667 201° Southwest 139 160 1,100 -885 Descending Potomac TRACON
Wed 02:20:00 PM 38.9474 -77.4599 165° South  Level Estimated
Wed 02:27:00 PM 38.9474 -77.4599 165° South  Level Estimated
Wed 02:28:00 PM 38.9474 -77.4599 165° South  Level Estimated
Wed 02:29:00 PM 38.9474 -77.4599 165° South  Level Estimated
Wed 02:30:00 PM 38.9474 -77.4599 165° South  Level Estimated

Login

Don't have an account? Register now (free) for customized features, flight alerts, and more!